sensor_id;sensor_type;location;lat;lon;timestamp;P1;durP1;ratioP1;P2;durP2;ratioP2
74612;SDS011;63119;51.788;8.824;2023-04-03T00:02:06;3.90;;;1.58;;
74612;SDS011;63119;51.788;8.824;2023-04-03T00:04:31;4.53;;;1.40;;
74612;SDS011;63119;51.788;8.824;2023-04-03T00:06:56;3.33;;;1.47;;
74612;SDS011;63119;51.788;8.824;2023-04-03T00:09:22;1.93;;;1.03;;
74612;SDS011;63119;51.788;8.824;2023-04-03T00:11:47;4.87;;;1.40;;
74612;SDS011;63119;51.788;8.824;2023-04-03T00:14:12;3.37;;;1.20;;
74612;SDS011;63119;51.788;8.824;2023-04-03T00:16:37;6.03;;;1.50;;
74612;SDS011;63119;51.788;8.824;2023-04-03T00:19:03;3.83;;;1.40;;
74612;SDS011;63119;51.788;8.824;2023-04-03T00:21:28;3.53;;;1.37;;
74612;SDS011;63119;51.788;8.824;2023-04-03T00:23:53;2.33;;;1.00;;
74612;SDS011;63119;51.788;8.824;2023-04-03T00:26:18;4.87;;;1.37;;
74612;SDS011;63119;51.788;8.824;2023-04-03T00:28:45;3.78;;;1.20;;
74612;SDS011;63119;51.788;8.824;2023-04-03T00:31:10;3.10;;;1.33;;
74612;SDS011;63119;51.788;8.824;2023-04-03T00:33:39;8.13;;;1.77;;
74612;SDS011;63119;51.788;8.824;2023-04-03T00:36:06;3.30;;;1.17;;
74612;SDS011;63119;51.788;8.824;2023-04-03T00:38:32;4.43;;;1.42;;
74612;SDS011;63119;51.788;8.824;2023-04-03T00:40:57;4.27;;;1.40;;
74612;SDS011;63119;51.788;8.824;2023-04-03T00:43:24;3.93;;;1.40;;
74612;SDS011;63119;51.788;8.824;2023-04-03T00:48:22;4.10;;;1.95;;
74612;SDS011;63119;51.788;8.824;2023-04-03T00:50:52;5.25;;;1.77;;
74612;SDS011;63119;51.788;8.824;2023-04-03T00:53:20;5.40;;;1.63;;
74612;SDS011;63119;51.788;8.824;2023-04-03T00:55:48;4.47;;;2.05;;
74612;SDS011;63119;51.788;8.824;2023-04-03T00:58:15;6.05;;;1.67;;
74612;SDS011;63119;51.788;8.824;2023-04-03T01:00:44;6.28;;;2.08;;
74612;SDS011;63119;51.788;8.824;2023-04-03T01:03:13;5.60;;;2.22;;
74612;SDS011;63119;51.788;8.824;2023-04-03T01:05:39;4.30;;;1.75;;
74612;SDS011;63119;51.788;8.824;2023-04-03T01:08:05;6.72;;;2.25;;
74612;SDS011;63119;51.788;8.824;2023-04-03T01:10:31;5.00;;;2.30;;
74612;SDS011;63119;51.788;8.824;2023-04-03T01:12:56;5.40;;;2.37;;
74612;SDS011;63119;51.788;8.824;2023-04-03T01:15:23;6.18;;;2.30;;
74612;SDS011;63119;51.788;8.824;2023-04-03T01:17:55;5.30;;;2.20;;
74612;SDS011;63119;51.788;8.824;2023-04-03T01:25:39;8.10;;;2.15;;
74612;SDS011;63119;51.788;8.824;2023-04-03T01:28:06;7.15;;;2.15;;
74612;SDS011;63119;51.788;8.824;2023-04-03T01:30:34;6.43;;;2.03;;
74612;SDS011;63119;51.788;8.824;2023-04-03T01:33:16;3.40;;;1.95;;
74612;SDS011;63119;51.788;8.824;2023-04-03T01:35:41;5.78;;;2.00;;
74612;SDS011;63119;51.788;8.824;2023-04-03T01:38:06;5.03;;;2.17;;
74612;SDS011;63119;51.788;8.824;2023-04-03T01:40:32;5.83;;;2.00;;
74612;SDS011;63119;51.788;8.824;2023-04-03T01:42:57;3.75;;;1.90;;
74612;SDS011;63119;51.788;8.824;2023-04-03T01:45:22;6.77;;;2.53;;
74612;SDS011;63119;51.788;8.824;2023-04-03T01:47:47;4.30;;;1.97;;
74612;SDS011;63119;51.788;8.824;2023-04-03T01:50:13;3.40;;;1.70;;
74612;SDS011;63119;51.788;8.824;2023-04-03T01:52:38;5.67;;;1.97;;
74612;SDS011;63119;51.788;8.824;2023-04-03T01:55:03;8.07;;;2.63;;
74612;SDS011;63119;51.788;8.824;2023-04-03T01:57:29;6.20;;;2.10;;
74612;SDS011;63119;51.788;8.824;2023-04-03T01:59:54;8.30;;;2.43;;
74612;SDS011;63119;51.788;8.824;2023-04-03T02:02:19;7.67;;;2.10;;
74612;SDS011;63119;51.788;8.824;2023-04-03T02:04:45;5.53;;;2.00;;
74612;SDS011;63119;51.788;8.824;2023-04-03T02:07:10;5.68;;;2.00;;
74612;SDS011;63119;51.788;8.824;2023-04-03T02:09:36;5.10;;;2.17;;
74612;SDS011;63119;51.788;8.824;2023-04-03T02:12:01;5.27;;;2.40;;
74612;SDS011;63119;51.788;8.824;2023-04-03T02:14:26;7.47;;;1.80;;
74612;SDS011;63119;51.788;8.824;2023-04-03T02:16:52;6.35;;;2.13;;
74612;SDS011;63119;51.788;8.824;2023-04-03T02:19:17;5.40;;;1.98;;
74612;SDS011;63119;51.788;8.824;2023-04-03T02:21:43;2.57;;;1.67;;
74612;SDS011;63119;51.788;8.824;2023-04-03T02:24:08;5.23;;;1.80;;
74612;SDS011;63119;51.788;8.824;2023-04-03T02:26:33;6.73;;;1.87;;
74612;SDS011;63119;51.788;8.824;2023-04-03T02:28:58;4.97;;;1.47;;
74612;SDS011;63119;51.788;8.824;2023-04-03T02:31:24;7.33;;;2.03;;
74612;SDS011;63119;51.788;8.824;2023-04-03T02:33:49;7.30;;;2.20;;
74612;SDS011;63119;51.788;8.824;2023-04-03T02:36:15;5.53;;;1.70;;
74612;SDS011;63119;51.788;8.824;2023-04-03T02:38:40;4.93;;;1.73;;
74612;SDS011;63119;51.788;8.824;2023-04-03T02:41:07;7.33;;;1.73;;
74612;SDS011;63119;51.788;8.824;2023-04-03T02:43:34;3.10;;;1.63;;
74612;SDS011;63119;51.788;8.824;2023-04-03T02:46:00;5.07;;;2.00;;
74612;SDS011;63119;51.788;8.824;2023-04-03T02:48:25;4.05;;;1.70;;
74612;SDS011;63119;51.788;8.824;2023-04-03T02:50:51;7.15;;;2.90;;
74612;SDS011;63119;51.788;8.824;2023-04-03T02:53:16;12.18;;;3.80;;
74612;SDS011;63119;51.788;8.824;2023-04-03T02:55:42;7.28;;;3.10;;
74612;SDS011;63119;51.788;8.824;2023-04-03T02:58:07;7.67;;;3.00;;
74612;SDS011;63119;51.788;8.824;2023-04-03T03:00:33;8.10;;;2.80;;
74612;SDS011;63119;51.788;8.824;2023-04-03T03:02:59;7.63;;;2.92;;
74612;SDS011;63119;51.788;8.824;2023-04-03T03:05:24;4.72;;;2.42;;
74612;SDS011;63119;51.788;8.824;2023-04-03T03:07:50;5.55;;;2.75;;
74612;SDS011;63119;51.788;8.824;2023-04-03T03:10:15;5.67;;;2.30;;
74612;SDS011;63119;51.788;8.824;2023-04-03T03:12:41;5.57;;;2.15;;
74612;SDS011;63119;51.788;8.824;2023-04-03T03:15:06;6.53;;;3.03;;
74612;SDS011;63119;51.788;8.824;2023-04-03T03:17:32;5.35;;;2.00;;
74612;SDS011;63119;51.788;8.824;2023-04-03T03:19:58;6.00;;;2.03;;
74612;SDS011;63119;51.788;8.824;2023-04-03T03:22:23;3.63;;;1.57;;
74612;SDS011;63119;51.788;8.824;2023-04-03T03:24:48;4.20;;;1.83;;
74612;SDS011;63119;51.788;8.824;2023-04-03T03:27:13;4.33;;;1.87;;
74612;SDS011;63119;51.788;8.824;2023-04-03T03:29:40;6.82;;;1.85;;
74612;SDS011;63119;51.788;8.824;2023-04-03T03:32:06;5.40;;;2.00;;
74612;SDS011;63119;51.788;8.824;2023-04-03T03:34:31;5.97;;;2.17;;
74612;SDS011;63119;51.788;8.824;2023-04-03T03:36:57;3.27;;;1.53;;
74612;SDS011;63119;51.788;8.824;2023-04-03T03:39:22;4.67;;;1.70;;
74612;SDS011;63119;51.788;8.824;2023-04-03T03:41:47;5.13;;;1.80;;
74612;SDS011;63119;51.788;8.824;2023-04-03T03:44:14;4.57;;;1.55;;
74612;SDS011;63119;51.788;8.824;2023-04-03T03:46:39;5.88;;;2.20;;
74612;SDS011;63119;51.788;8.824;2023-04-03T03:49:05;6.80;;;2.13;;
74612;SDS011;63119;51.788;8.824;2023-04-03T03:51:30;9.57;;;2.30;;
74612;SDS011;63119;51.788;8.824;2023-04-03T03:53:55;5.00;;;2.40;;
74612;SDS011;63119;51.788;8.824;2023-04-03T03:56:20;7.87;;;2.50;;
74612;SDS011;63119;51.788;8.824;2023-04-03T03:58:46;3.97;;;1.73;;
74612;SDS011;63119;51.788;8.824;2023-04-03T04:01:11;3.47;;;2.13;;
74612;SDS011;63119;51.788;8.824;2023-04-03T04:03:36;5.67;;;1.70;;
74612;SDS011;63119;51.788;8.824;2023-04-03T04:06:02;6.03;;;1.90;;
74612;SDS011;63119;51.788;8.824;2023-04-03T04:08:27;3.63;;;1.90;;
74612;SDS011;63119;51.788;8.824;2023-04-03T04:10:52;4.23;;;1.73;;
74612;SDS011;63119;51.788;8.824;2023-04-03T04:13:17;5.83;;;1.87;;
74612;SDS011;63119;51.788;8.824;2023-04-03T04:15:43;3.83;;;2.40;;
74612;SDS011;63119;51.788;8.824;2023-04-03T04:18:08;6.38;;;2.08;;
74612;SDS011;63119;51.788;8.824;2023-04-03T04:20:34;4.72;;;2.28;;
74612;SDS011;63119;51.788;8.824;2023-04-03T04:22:59;5.07;;;2.13;;
74612;SDS011;63119;51.788;8.824;2023-04-03T04:25:24;5.55;;;1.90;;
74612;SDS011;63119;51.788;8.824;2023-04-03T04:27:50;6.78;;;2.60;;
74612;SDS011;63119;51.788;8.824;2023-04-03T04:30:15;7.35;;;1.98;;
74612;SDS011;63119;51.788;8.824;2023-04-03T04:32:41;4.77;;;1.90;;
74612;SDS011;63119;51.788;8.824;2023-04-03T04:35:06;5.57;;;2.00;;
74612;SDS011;63119;51.788;8.824;2023-04-03T04:37:31;4.70;;;1.98;;
74612;SDS011;63119;51.788;8.824;2023-04-03T04:39:57;7.20;;;2.57;;
74612;SDS011;63119;51.788;8.824;2023-04-03T04:42:22;6.77;;;2.53;;
74612;SDS011;63119;51.788;8.824;2023-04-03T04:44:47;5.67;;;1.97;;
74612;SDS011;63119;51.788;8.824;2023-04-03T04:47:12;5.60;;;2.13;;
74612;SDS011;63119;51.788;8.824;2023-04-03T04:49:38;4.27;;;1.90;;
74612;SDS011;63119;51.788;8.824;2023-04-03T04:52:03;5.43;;;2.00;;
74612;SDS011;63119;51.788;8.824;2023-04-03T04:54:28;4.72;;;2.30;;
74612;SDS011;63119;51.788;8.824;2023-04-03T04:56:54;4.80;;;2.17;;
74612;SDS011;63119;51.788;8.824;2023-04-03T04:59:19;7.60;;;2.43;;
74612;SDS011;63119;51.788;8.824;2023-04-03T05:01:44;8.23;;;2.73;;
74612;SDS011;63119;51.788;8.824;2023-04-03T05:04:10;10.13;;;2.57;;
74612;SDS011;63119;51.788;8.824;2023-04-03T05:06:35;7.07;;;2.72;;
74612;SDS011;63119;51.788;8.824;2023-04-03T05:09:00;9.47;;;2.90;;
74612;SDS011;63119;51.788;8.824;2023-04-03T05:11:26;5.65;;;2.55;;
74612;SDS011;63119;51.788;8.824;2023-04-03T05:13:51;6.50;;;2.80;;
74612;SDS011;63119;51.788;8.824;2023-04-03T05:16:17;4.70;;;2.22;;
74612;SDS011;63119;51.788;8.824;2023-04-03T05:18:42;6.43;;;3.00;;
74612;SDS011;63119;51.788;8.824;2023-04-03T05:21:07;7.00;;;2.53;;
74612;SDS011;63119;51.788;8.824;2023-04-03T05:23:32;4.60;;;2.43;;
74612;SDS011;63119;51.788;8.824;2023-04-03T05:25:58;5.95;;;2.75;;
74612;SDS011;63119;51.788;8.824;2023-04-03T05:28:23;7.93;;;3.30;;
74612;SDS011;63119;51.788;8.824;2023-04-03T05:30:56;5.88;;;2.40;;
74612;SDS011;63119;51.788;8.824;2023-04-03T05:33:22;7.60;;;2.40;;
74612;SDS011;63119;51.788;8.824;2023-04-03T05:35:48;4.65;;;2.20;;
74612;SDS011;63119;51.788;8.824;2023-04-03T05:38:13;4.47;;;2.30;;
74612;SDS011;63119;51.788;8.824;2023-04-03T05:40:38;7.17;;;2.43;;
74612;SDS011;63119;51.788;8.824;2023-04-03T05:43:03;6.57;;;3.27;;
74612;SDS011;63119;51.788;8.824;2023-04-03T05:45:29;6.73;;;2.60;;
74612;SDS011;63119;51.788;8.824;2023-04-03T05:47:54;3.17;;;2.10;;
74612;SDS011;63119;51.788;8.824;2023-04-03T05:50:19;4.90;;;2.10;;
74612;SDS011;63119;51.788;8.824;2023-04-03T05:52:45;4.88;;;1.85;;
74612;SDS011;63119;51.788;8.824;2023-04-03T05:55:13;6.85;;;1.85;;
74612;SDS011;63119;51.788;8.824;2023-04-03T05:57:38;6.78;;;2.17;;
74612;SDS011;63119;51.788;8.824;2023-04-03T06:00:05;5.70;;;1.73;;
74612;SDS011;63119;51.788;8.824;2023-04-03T06:02:31;6.30;;;2.05;;
74612;SDS011;63119;51.788;8.824;2023-04-03T06:04:56;6.03;;;1.80;;
74612;SDS011;63119;51.788;8.824;2023-04-03T06:07:23;6.68;;;1.70;;
74612;SDS011;63119;51.788;8.824;2023-04-03T06:09:53;5.07;;;1.80;;
74612;SDS011;63119;51.788;8.824;2023-04-03T06:12:19;5.70;;;1.77;;
74612;SDS011;63119;51.788;8.824;2023-04-03T06:14:45;5.10;;;2.42;;
74612;SDS011;63119;51.788;8.824;2023-04-03T06:17:10;6.15;;;2.17;;
74612;SDS011;63119;51.788;8.824;2023-04-03T06:19:37;4.32;;;1.65;;
74612;SDS011;63119;51.788;8.824;2023-04-03T06:22:02;4.38;;;1.95;;
74612;SDS011;63119;51.788;8.824;2023-04-03T06:24:27;5.30;;;1.60;;
74612;SDS011;63119;51.788;8.824;2023-04-03T06:26:53;5.00;;;2.28;;
74612;SDS011;63119;51.788;8.824;2023-04-03T06:29:19;7.30;;;2.23;;
74612;SDS011;63119;51.788;8.824;2023-04-03T06:31:45;5.60;;;1.60;;
74612;SDS011;63119;51.788;8.824;2023-04-03T06:34:11;4.35;;;1.73;;
74612;SDS011;63119;51.788;8.824;2023-04-03T06:36:37;6.85;;;1.52;;
74612;SDS011;63119;51.788;8.824;2023-04-03T06:39:03;4.82;;;1.65;;
74612;SDS011;63119;51.788;8.824;2023-04-03T06:41:29;6.43;;;2.05;;
74612;SDS011;63119;51.788;8.824;2023-04-03T06:43:55;6.43;;;1.70;;
74612;SDS011;63119;51.788;8.824;2023-04-03T06:46:22;9.07;;;1.67;;
74612;SDS011;63119;51.788;8.824;2023-04-03T06:48:48;3.20;;;1.20;;
74612;SDS011;63119;51.788;8.824;2023-04-03T06:51:27;4.57;;;1.52;;
74612;SDS011;63119;51.788;8.824;2023-04-03T06:56:21;5.07;;;1.50;;
74612;SDS011;63119;51.788;8.824;2023-04-03T06:58:47;4.38;;;1.75;;
74612;SDS011;63119;51.788;8.824;2023-04-03T07:01:13;5.07;;;1.17;;
74612;SDS011;63119;51.788;8.824;2023-04-03T07:03:41;6.88;;;1.20;;
74612;SDS011;63119;51.788;8.824;2023-04-03T07:06:07;3.95;;;1.38;;
74612;SDS011;63119;51.788;8.824;2023-04-03T07:08:36;3.05;;;1.33;;
74612;SDS011;63119;51.788;8.824;2023-04-03T07:11:01;5.07;;;1.40;;
74612;SDS011;63119;51.788;8.824;2023-04-03T07:13:27;4.18;;;1.40;;
74612;SDS011;63119;51.788;8.824;2023-04-03T07:15:52;7.47;;;1.33;;
74612;SDS011;63119;51.788;8.824;2023-04-03T07:18:18;5.25;;;1.20;;
74612;SDS011;63119;51.788;8.824;2023-04-03T07:20:44;4.90;;;1.05;;
74612;SDS011;63119;51.788;8.824;2023-04-03T07:23:10;3.78;;;1.20;;
74612;SDS011;63119;51.788;8.824;2023-04-03T07:25:36;3.90;;;1.02;;
74612;SDS011;63119;51.788;8.824;2023-04-03T07:28:02;2.40;;;1.00;;
74612;SDS011;63119;51.788;8.824;2023-04-03T07:30:28;4.55;;;0.90;;
74612;SDS011;63119;51.788;8.824;2023-04-03T07:32:54;4.80;;;0.95;;
74612;SDS011;63119;51.788;8.824;2023-04-03T07:35:19;5.77;;;1.27;;
74612;SDS011;63119;51.788;8.824;2023-04-03T07:37:44;1.83;;;0.93;;
74612;SDS011;63119;51.788;8.824;2023-04-03T07:40:10;3.67;;;1.10;;
74612;SDS011;63119;51.788;8.824;2023-04-03T07:42:35;3.05;;;0.70;;
74612;SDS011;63119;51.788;8.824;2023-04-03T07:45:01;1.83;;;0.82;;
74612;SDS011;63119;51.788;8.824;2023-04-03T07:47:28;2.13;;;1.05;;
74612;SDS011;63119;51.788;8.824;2023-04-03T07:49:53;3.47;;;1.38;;
74612;SDS011;63119;51.788;8.824;2023-04-03T07:52:19;3.53;;;1.40;;
74612;SDS011;63119;51.788;8.824;2023-04-03T07:54:44;3.95;;;1.02;;
74612;SDS011;63119;51.788;8.824;2023-04-03T07:57:09;4.63;;;1.10;;
74612;SDS011;63119;51.788;8.824;2023-04-03T07:59:35;6.13;;;1.08;;
74612;SDS011;63119;51.788;8.824;2023-04-03T08:02:00;3.67;;;1.30;;
74612;SDS011;63119;51.788;8.824;2023-04-03T08:04:26;1.73;;;0.77;;
74612;SDS011;63119;51.788;8.824;2023-04-03T08:06:52;3.53;;;0.80;;
74612;SDS011;63119;51.788;8.824;2023-04-03T08:09:17;2.78;;;0.73;;
74612;SDS011;63119;51.788;8.824;2023-04-03T08:11:44;2.78;;;0.82;;
74612;SDS011;63119;51.788;8.824;2023-04-03T08:14:09;2.38;;;0.85;;
74612;SDS011;63119;51.788;8.824;2023-04-03T08:16:40;3.28;;;1.10;;
74612;SDS011;63119;51.788;8.824;2023-04-03T08:19:05;2.55;;;0.98;;
74612;SDS011;63119;51.788;8.824;2023-04-03T08:21:32;3.95;;;1.08;;
74612;SDS011;63119;51.788;8.824;2023-04-03T08:23:57;1.93;;;0.90;;
74612;SDS011;63119;51.788;8.824;2023-04-03T08:26:23;4.00;;;0.93;;
74612;SDS011;63119;51.788;8.824;2023-04-03T08:28:48;5.03;;;0.98;;
74612;SDS011;63119;51.788;8.824;2023-04-03T08:31:15;3.40;;;0.70;;
74612;SDS011;63119;51.788;8.824;2023-04-03T08:33:43;1.92;;;0.70;;
74612;SDS011;63119;51.788;8.824;2023-04-03T08:36:16;1.83;;;0.68;;
74612;SDS011;63119;51.788;8.824;2023-04-03T08:38:51;2.08;;;0.80;;
74612;SDS011;63119;51.788;8.824;2023-04-03T08:41:29;1.52;;;0.70;;
74612;SDS011;63119;51.788;8.824;2023-04-03T08:44:12;3.58;;;0.80;;
74612;SDS011;63119;51.788;8.824;2023-04-03T08:49:48;2.42;;;1.58;;
74612;SDS011;63119;51.788;8.824;2023-04-03T08:52:19;3.28;;;1.00;;
74612;SDS011;63119;51.788;8.824;2023-04-03T08:54:58;2.03;;;0.70;;
74612;SDS011;63119;51.788;8.824;2023-04-03T08:59:51;1.92;;;0.90;;
74612;SDS011;63119;51.788;8.824;2023-04-03T09:02:24;2.28;;;0.80;;
74612;SDS011;63119;51.788;8.824;2023-04-03T09:04:54;2.03;;;1.05;;
74612;SDS011;63119;51.788;8.824;2023-04-03T09:07:22;3.57;;;1.20;;
74612;SDS011;63119;51.788;8.824;2023-04-03T09:09:56;2.13;;;0.65;;
74612;SDS011;63119;51.788;8.824;2023-04-03T09:12:44;2.15;;;0.95;;
74612;SDS011;63119;51.788;8.824;2023-04-03T09:20:26;3.60;;;0.70;;
74612;SDS011;63119;51.788;8.824;2023-04-03T09:23:12;2.03;;;0.93;;
74612;SDS011;63119;51.788;8.824;2023-04-03T09:25:43;2.83;;;0.82;;
74612;SDS011;63119;51.788;8.824;2023-04-03T09:28:08;0.98;;;0.50;;
74612;SDS011;63119;51.788;8.824;2023-04-03T09:30:34;1.95;;;0.75;;
74612;SDS011;63119;51.788;8.824;2023-04-03T09:33:01;2.88;;;0.82;;
74612;SDS011;63119;51.788;8.824;2023-04-03T09:35:27;2.53;;;0.88;;
74612;SDS011;63119;51.788;8.824;2023-04-03T09:37:58;2.72;;;0.70;;
74612;SDS011;63119;51.788;8.824;2023-04-03T09:40:45;2.95;;;0.80;;
74612;SDS011;63119;51.788;8.824;2023-04-03T09:48:15;1.08;;;0.60;;
74612;SDS011;63119;51.788;8.824;2023-04-03T09:51:00;11.85;;;5.57;;
74612;SDS011;63119;51.788;8.824;2023-04-03T09:58:40;1.42;;;0.60;;
74612;SDS011;63119;51.788;8.824;2023-04-03T10:01:20;3.90;;;0.73;;
74612;SDS011;63119;51.788;8.824;2023-04-03T10:03:47;1.25;;;0.60;;
74612;SDS011;63119;51.788;8.824;2023-04-03T10:09:20;2.92;;;0.65;;
74612;SDS011;63119;51.788;8.824;2023-04-03T10:12:07;2.17;;;0.73;;
74612;SDS011;63119;51.788;8.824;2023-04-03T10:14:37;3.20;;;0.68;;
74612;SDS011;63119;51.788;8.824;2023-04-03T10:17:22;2.15;;;0.77;;
74612;SDS011;63119;51.788;8.824;2023-04-03T10:20:28;1.00;;;0.45;;
74612;SDS011;63119;51.788;8.824;2023-04-03T10:28:43;1.40;;;0.63;;
74612;SDS011;63119;51.788;8.824;2023-04-03T10:34:06;2.53;;;0.68;;
74612;SDS011;63119;51.788;8.824;2023-04-03T10:36:53;5.90;;;1.02;;
74612;SDS011;63119;51.788;8.824;2023-04-03T10:42:25;2.10;;;0.45;;
74612;SDS011;63119;51.788;8.824;2023-04-03T10:48:20;2.15;;;0.93;;
74612;SDS011;63119;51.788;8.824;2023-04-03T10:51:38;2.22;;;0.60;;
74612;SDS011;63119;51.788;8.824;2023-04-03T10:54:11;3.10;;;1.30;;
74612;SDS011;63119;51.788;8.824;2023-04-03T10:56:39;1.98;;;0.90;;
74612;SDS011;63119;51.788;8.824;2023-04-03T10:59:32;3.00;;;0.85;;
74612;SDS011;63119;51.788;8.824;2023-04-03T11:07:56;3.70;;;0.95;;
74612;SDS011;63119;51.788;8.824;2023-04-03T11:10:46;3.08;;;0.80;;
74612;SDS011;63119;51.788;8.824;2023-04-03T11:15:48;2.45;;;0.60;;
74612;SDS011;63119;51.788;8.824;2023-04-03T11:18:15;0.85;;;0.63;;
74612;SDS011;63119;51.788;8.824;2023-04-03T11:21:20;5.78;;;1.58;;
74612;SDS011;63119;51.788;8.824;2023-04-03T11:23:46;6.15;;;1.10;;
74612;SDS011;63119;51.788;8.824;2023-04-03T11:26:13;3.28;;;1.10;;
74612;SDS011;63119;51.788;8.824;2023-04-03T11:28:43;2.70;;;0.63;;
74612;SDS011;63119;51.788;8.824;2023-04-03T11:36:18;2.08;;;1.00;;
74612;SDS011;63119;51.788;8.824;2023-04-03T11:38:48;1.80;;;0.80;;
74612;SDS011;63119;51.788;8.824;2023-04-03T11:41:21;2.08;;;1.20;;
74612;SDS011;63119;51.788;8.824;2023-04-03T11:44:00;2.13;;;0.80;;
74612;SDS011;63119;51.788;8.824;2023-04-03T11:55:35;6.43;;;0.95;;
74612;SDS011;63119;51.788;8.824;2023-04-03T12:05:50;3.70;;;1.10;;
74612;SDS011;63119;51.788;8.824;2023-04-03T12:08:26;1.92;;;0.70;;
74612;SDS011;63119;51.788;8.824;2023-04-03T12:13:35;2.42;;;0.80;;
74612;SDS011;63119;51.788;8.824;2023-04-03T12:16:04;4.75;;;1.00;;
74612;SDS011;63119;51.788;8.824;2023-04-03T12:19:24;2.53;;;0.75;;
74612;SDS011;63119;51.788;8.824;2023-04-03T12:24:12;2.33;;;1.23;;
74612;SDS011;63119;51.788;8.824;2023-04-03T12:26:51;2.67;;;0.90;;
74612;SDS011;63119;51.788;8.824;2023-04-03T12:37:44;2.50;;;0.82;;
74612;SDS011;63119;51.788;8.824;2023-04-03T12:46:26;3.05;;;0.90;;
74612;SDS011;63119;51.788;8.824;2023-04-03T12:49:00;3.65;;;1.10;;
74612;SDS011;63119;51.788;8.824;2023-04-03T12:51:42;1.58;;;0.80;;
74612;SDS011;63119;51.788;8.824;2023-04-03T12:54:20;2.30;;;0.70;;
74612;SDS011;63119;51.788;8.824;2023-04-03T12:56:50;3.92;;;1.05;;
74612;SDS011;63119;51.788;8.824;2023-04-03T12:59:18;2.50;;;0.90;;
74612;SDS011;63119;51.788;8.824;2023-04-03T13:04:24;2.92;;;0.80;;
74612;SDS011;63119;51.788;8.824;2023-04-03T13:06:51;2.83;;;0.75;;
74612;SDS011;63119;51.788;8.824;2023-04-03T13:09:22;3.15;;;1.10;;
74612;SDS011;63119;51.788;8.824;2023-04-03T13:12:10;3.47;;;0.95;;
74612;SDS011;63119;51.788;8.824;2023-04-03T13:14:38;2.70;;;0.88;;
74612;SDS011;63119;51.788;8.824;2023-04-03T13:17:13;2.17;;;0.70;;
74612;SDS011;63119;51.788;8.824;2023-04-03T13:19:40;3.15;;;1.13;;
74612;SDS011;63119;51.788;8.824;2023-04-03T13:24:59;1.30;;;0.73;;
74612;SDS011;63119;51.788;8.824;2023-04-03T13:27:29;4.22;;;0.77;;
74612;SDS011;63119;51.788;8.824;2023-04-03T13:29:57;3.45;;;1.23;;
74612;SDS011;63119;51.788;8.824;2023-04-03T13:32:25;4.85;;;0.80;;
74612;SDS011;63119;51.788;8.824;2023-04-03T13:34:53;3.13;;;0.90;;
74612;SDS011;63119;51.788;8.824;2023-04-03T13:37:23;3.53;;;1.33;;
74612;SDS011;63119;51.788;8.824;2023-04-03T13:39:58;3.25;;;1.02;;
74612;SDS011;63119;51.788;8.824;2023-04-03T13:42:28;4.80;;;1.25;;
74612;SDS011;63119;51.788;8.824;2023-04-03T13:45:42;5.78;;;1.02;;
74612;SDS011;63119;51.788;8.824;2023-04-03T13:47:50;1.98;;;0.73;;
74612;SDS011;63119;51.788;8.824;2023-04-03T13:50:18;3.90;;;0.90;;
74612;SDS011;63119;51.788;8.824;2023-04-03T13:52:52;2.35;;;1.15;;
74612;SDS011;63119;51.788;8.824;2023-04-03T13:57:52;3.90;;;1.33;;
74612;SDS011;63119;51.788;8.824;2023-04-03T14:00:27;2.97;;;1.10;;
74612;SDS011;63119;51.788;8.824;2023-04-03T14:02:54;3.33;;;1.33;;
74612;SDS011;63119;51.788;8.824;2023-04-03T14:05:21;3.28;;;0.90;;
74612;SDS011;63119;51.788;8.824;2023-04-03T14:07:48;1.88;;;0.93;;
74612;SDS011;63119;51.788;8.824;2023-04-03T14:10:13;3.30;;;1.10;;
74612;SDS011;63119;51.788;8.824;2023-04-03T14:12:38;2.73;;;0.80;;
74612;SDS011;63119;51.788;8.824;2023-04-03T14:15:11;5.72;;;1.75;;
74612;SDS011;63119;51.788;8.824;2023-04-03T14:17:42;1.80;;;1.13;;
74612;SDS011;63119;51.788;8.824;2023-04-03T14:20:15;3.22;;;0.75;;
74612;SDS011;63119;51.788;8.824;2023-04-03T14:22:42;2.53;;;1.10;;
74612;SDS011;63119;51.788;8.824;2023-04-03T14:25:07;3.80;;;0.93;;
74612;SDS011;63119;51.788;8.824;2023-04-03T14:27:34;4.20;;;0.95;;
74612;SDS011;63119;51.788;8.824;2023-04-03T14:30:03;4.28;;;0.70;;
74612;SDS011;63119;51.788;8.824;2023-04-03T14:32:31;5.35;;;1.25;;
74612;SDS011;63119;51.788;8.824;2023-04-03T14:34:57;1.60;;;0.70;;
74612;SDS011;63119;51.788;8.824;2023-04-03T14:37:24;3.33;;;0.90;;
74612;SDS011;63119;51.788;8.824;2023-04-03T14:39:53;3.08;;;0.90;;
74612;SDS011;63119;51.788;8.824;2023-04-03T14:42:21;2.35;;;0.80;;
74612;SDS011;63119;51.788;8.824;2023-04-03T14:44:48;2.15;;;0.68;;
74612;SDS011;63119;51.788;8.824;2023-04-03T14:47:15;2.22;;;1.02;;
74612;SDS011;63119;51.788;8.824;2023-04-03T14:49:45;2.95;;;0.70;;
74612;SDS011;63119;51.788;8.824;2023-04-03T14:52:16;2.03;;;0.90;;
74612;SDS011;63119;51.788;8.824;2023-04-03T14:54:48;2.83;;;0.80;;
74612;SDS011;63119;51.788;8.824;2023-04-03T14:57:15;5.82;;;1.08;;
74612;SDS011;63119;51.788;8.824;2023-04-03T14:59:41;3.65;;;1.00;;
74612;SDS011;63119;51.788;8.824;2023-04-03T15:02:13;2.63;;;0.70;;
74612;SDS011;63119;51.788;8.824;2023-04-03T15:04:50;3.53;;;0.88;;
74612;SDS011;63119;51.788;8.824;2023-04-03T15:07:15;3.10;;;1.17;;
74612;SDS011;63119;51.788;8.824;2023-04-03T15:09:41;1.77;;;0.88;;
74612;SDS011;63119;51.788;8.824;2023-04-03T15:12:07;3.47;;;1.10;;
74612;SDS011;63119;51.788;8.824;2023-04-03T15:14:34;1.92;;;0.82;;
74612;SDS011;63119;51.788;8.824;2023-04-03T15:17:00;3.37;;;1.10;;
74612;SDS011;63119;51.788;8.824;2023-04-03T15:19:25;2.15;;;0.80;;
74612;SDS011;63119;51.788;8.824;2023-04-03T15:21:50;2.67;;;1.00;;
74612;SDS011;63119;51.788;8.824;2023-04-03T15:24:16;5.47;;;0.93;;
74612;SDS011;63119;51.788;8.824;2023-04-03T15:26:41;3.87;;;0.90;;
74612;SDS011;63119;51.788;8.824;2023-04-03T15:29:06;5.65;;;1.40;;
74612;SDS011;63119;51.788;8.824;2023-04-03T15:31:32;7.33;;;2.50;;
74612;SDS011;63119;51.788;8.824;2023-04-03T15:33:57;3.40;;;1.10;;
74612;SDS011;63119;51.788;8.824;2023-04-03T15:36:22;7.27;;;1.50;;
74612;SDS011;63119;51.788;8.824;2023-04-03T15:38:48;4.10;;;1.53;;
74612;SDS011;63119;51.788;8.824;2023-04-03T15:41:13;3.23;;;1.30;;
74612;SDS011;63119;51.788;8.824;2023-04-03T15:43:38;3.90;;;1.43;;
74612;SDS011;63119;51.788;8.824;2023-04-03T15:46:03;3.43;;;1.00;;
74612;SDS011;63119;51.788;8.824;2023-04-03T15:48:29;3.50;;;1.30;;
74612;SDS011;63119;51.788;8.824;2023-04-03T15:50:54;1.92;;;0.82;;
74612;SDS011;63119;51.788;8.824;2023-04-03T15:53:20;3.25;;;1.63;;
74612;SDS011;63119;51.788;8.824;2023-04-03T15:55:45;3.53;;;1.07;;
74612;SDS011;63119;51.788;8.824;2023-04-03T15:58:10;1.67;;;0.83;;
74612;SDS011;63119;51.788;8.824;2023-04-03T16:00:36;2.37;;;1.00;;
74612;SDS011;63119;51.788;8.824;2023-04-03T16:03:04;2.42;;;1.13;;
74612;SDS011;63119;51.788;8.824;2023-04-03T16:05:33;4.35;;;1.10;;
74612;SDS011;63119;51.788;8.824;2023-04-03T16:08:01;3.90;;;1.13;;
74612;SDS011;63119;51.788;8.824;2023-04-03T16:10:27;2.75;;;1.13;;
74612;SDS011;63119;51.788;8.824;2023-04-03T16:12:52;3.78;;;1.05;;
74612;SDS011;63119;51.788;8.824;2023-04-03T16:15:18;2.90;;;0.90;;
74612;SDS011;63119;51.788;8.824;2023-04-03T16:17:43;3.17;;;0.97;;
74612;SDS011;63119;51.788;8.824;2023-04-03T16:20:10;2.35;;;1.45;;
74612;SDS011;63119;51.788;8.824;2023-04-03T16:22:38;4.35;;;1.60;;
74612;SDS011;63119;51.788;8.824;2023-04-03T16:25:04;5.63;;;2.08;;
74612;SDS011;63119;51.788;8.824;2023-04-03T16:27:30;2.38;;;1.00;;
74612;SDS011;63119;51.788;8.824;2023-04-03T16:29:56;6.35;;;1.77;;
74612;SDS011;63119;51.788;8.824;2023-04-03T16:32:22;5.75;;;1.52;;
74612;SDS011;63119;51.788;8.824;2023-04-03T16:34:48;5.60;;;1.80;;
74612;SDS011;63119;51.788;8.824;2023-04-03T16:37:13;3.30;;;1.33;;
74612;SDS011;63119;51.788;8.824;2023-04-03T16:39:39;1.70;;;0.90;;
74612;SDS011;63119;51.788;8.824;2023-04-03T16:42:05;3.83;;;1.33;;